createdAt,value
2018-12-01T00:01:51.275Z,100431.16
2018-12-01T00:06:53.713Z,100442.14
2018-12-01T00:11:56.161Z,100429.08
2018-12-01T00:16:58.555Z,100428.22
2018-12-01T00:22:01.158Z,100421.98
2018-12-01T00:27:03.673Z,100426.65
2018-12-01T00:32:06.050Z,100422.69
2018-12-01T00:37:08.434Z,100425.36
2018-12-01T00:42:10.950Z,100431.62
2018-12-01T00:47:13.350Z,100437.84
2018-12-01T00:52:16.887Z,100440.97
2018-12-01T00:57:19.387Z,100444.13
2018-12-01T01:02:27.329Z,100446.78
2018-12-01T01:07:29.795Z,100452.06
2018-12-01T01:12:32.216Z,100462.57
2018-12-01T01:17:35.371Z,100459.62
2018-12-01T01:22:37.925Z,100456.94
2018-12-01T01:27:40.429Z,100466.25
2018-12-01T01:32:42.892Z,100471.47
2018-12-01T01:37:45.362Z,100469.78
2018-12-01T01:42:47.822Z,100472.94
2018-12-01T01:47:50.303Z,100480.34
2018-12-01T01:52:52.791Z,100482.64
2018-12-01T01:57:55.189Z,100473.74
2018-12-01T02:02:57.666Z,100469.92
2018-12-01T02:08:00.142Z,100467.28
2018-12-01T02:13:02.711Z,100464.82
2018-12-01T02:18:05.754Z,100461.86
2018-12-01T02:23:08.344Z,100462.73
2018-12-01T02:28:10.774Z,100458.36
2018-12-01T02:33:13.189Z,100457.50
2018-12-01T02:38:15.700Z,100457.91
2018-12-01T02:43:18.226Z,100448.69
2018-12-01T02:48:20.722Z,100438.64
2018-12-01T02:53:23.408Z,100437.63
2018-12-01T02:58:25.866Z,100440.42
2018-12-01T03:03:28.641Z,100437.41
2018-12-01T03:08:31.059Z,100440.72
2018-12-01T03:13:33.622Z,100445.94
2018-12-01T03:18:36.034Z,100439.85
2018-12-01T03:23:38.704Z,100447.84
2018-12-01T03:28:41.084Z,100439.14
2018-12-01T03:33:43.619Z,100433.48
2018-12-01T03:38:46.002Z,100438.34
2018-12-01T03:43:48.745Z,100454.78
2018-12-01T03:48:51.816Z,100453.14
2018-12-01T03:53:54.441Z,100458.56
2018-12-01T03:58:57.226Z,100464.78
2018-12-01T04:03:59.718Z,100466.81
2018-12-01T04:09:07.727Z,100471.64
2018-12-01T04:14:10.234Z,100478.58
2018-12-01T04:19:12.726Z,100474.95
2018-12-01T04:24:15.359Z,100483.97
2018-12-01T04:29:17.846Z,100471.98
2018-12-01T04:34:22.380Z,100474.89
2018-12-01T04:39:24.886Z,100481.95
2018-12-01T04:44:27.594Z,100476.38
2018-12-01T04:49:30.002Z,100480.68
2018-12-01T04:54:32.542Z,100486.16
2018-12-01T04:59:35.281Z,100486.36
2018-12-01T05:04:37.730Z,100493.82
2018-12-01T05:09:40.154Z,100497.84
2018-12-01T05:14:42.600Z,100504.81
2018-12-01T05:19:45.185Z,100499.96
2018-12-01T05:24:47.618Z,100499.75
2018-12-01T05:29:50.006Z,100501.14
2018-12-01T05:34:52.430Z,100515.72
2018-12-01T05:39:54.890Z,100515.64
2018-12-01T05:44:57.290Z,100520.73
2018-12-01T05:49:59.753Z,100524.88
2018-12-01T05:55:02.362Z,100536.19
2018-12-01T06:00:13.566Z,100526.06
2018-12-01T06:05:16.015Z,100515.51
2018-12-01T06:10:20.374Z,100527.27
2018-12-01T06:15:22.883Z,100526.22
2018-12-01T06:20:26.234Z,100526.14
2018-12-01T06:25:28.710Z,100523.03
2018-12-01T06:30:31.094Z,100526.00
2018-12-01T06:35:33.538Z,100537.77
2018-12-01T06:40:35.983Z,100542.05
2018-12-01T06:45:38.511Z,100541.42
2018-12-01T06:50:41.078Z,100532.90
2018-12-01T06:55:43.688Z,100544.78
2018-12-01T07:00:46.193Z,100537.61
2018-12-01T07:05:48.661Z,100538.84
2018-12-01T07:10:51.270Z,100550.84
2018-12-01T07:15:53.742Z,100561.67
2018-12-01T07:20:56.188Z,100552.66
2018-12-01T07:25:58.886Z,100560.98
2018-12-01T07:31:01.324Z,100555.64
2018-12-01T07:36:03.740Z,100545.65
2018-12-01T07:41:06.197Z,100549.03
2018-12-01T07:46:08.705Z,100537.61
2018-12-01T07:51:11.264Z,100536.26
2018-12-01T07:56:13.742Z,100536.26
2018-12-01T08:01:16.234Z,100539.24
2018-12-01T08:06:18.627Z,100539.96
2018-12-01T08:11:21.111Z,100534.91
2018-12-01T08:16:23.558Z,100535.24
2018-12-01T08:21:26.044Z,100526.71
2018-12-01T08:26:28.505Z,100524.44
2018-12-01T08:31:31.211Z,100529.52
2018-12-01T08:36:33.611Z,100529.91
2018-12-01T08:41:36.294Z,100536.25
2018-12-01T08:46:38.784Z,100532.94
2018-12-01T08:51:41.247Z,100537.55
2018-12-01T08:56:43.820Z,100538.72
2018-12-01T09:01:46.327Z,100544.72
2018-12-01T09:06:48.834Z,100552.47
2018-12-01T09:11:51.237Z,100554.25
2018-12-01T09:17:03.043Z,100553.51
2018-12-01T09:22:05.619Z,100554.11
2018-12-01T09:27:10.306Z,100551.64
2018-12-01T09:32:13.029Z,100552.88
2018-12-01T09:37:15.593Z,100543.39
2018-12-01T09:42:18.062Z,100523.20
2018-12-01T09:47:20.674Z,100538.39
2018-12-01T09:52:23.215Z,100531.44
2018-12-01T09:57:25.712Z,100533.88
2018-12-01T10:02:28.209Z,100539.58
2018-12-01T10:07:31.003Z,100541.00
2018-12-01T10:12:33.523Z,100539.11
2018-12-01T10:17:36.454Z,100531.23
2018-12-01T10:22:40.128Z,100521.87
2018-12-01T10:27:42.827Z,100520.23
2018-12-01T10:32:46.851Z,100523.73
2018-12-01T10:37:55.611Z,100520.27
2018-12-01T10:42:58.154Z,100522.25
2018-12-01T10:48:00.867Z,100519.59
2018-12-01T10:53:03.796Z,100513.12
2018-12-01T10:58:10.407Z,100516.48
2018-12-01T11:03:18.865Z,100511.36
2018-12-01T11:08:21.551Z,100508.78
2018-12-01T11:13:24.110Z,100503.81
2018-12-01T11:18:26.567Z,100487.63
2018-12-01T11:23:29.113Z,100478.84
2018-12-01T11:28:31.631Z,100469.20
2018-12-01T11:33:34.157Z,100465.61
2018-12-01T11:38:36.608Z,100454.64
2018-12-01T11:43:39.146Z,100439.05
2018-12-01T11:48:41.665Z,100439.51
2018-12-01T11:53:44.270Z,100433.34
2018-12-01T11:58:46.719Z,100431.82
2018-12-01T12:03:49.320Z,100422.67
2018-12-01T12:08:51.870Z,100419.28
2018-12-01T12:13:54.430Z,100416.81
2018-12-01T12:18:57.008Z,100417.00
2018-12-01T12:23:59.538Z,100412.29
2018-12-01T12:29:02.063Z,100410.06
2018-12-01T12:34:04.744Z,100406.31
2018-12-01T12:39:07.366Z,100400.48
2018-12-01T12:44:09.869Z,100394.19
2018-12-01T12:49:12.450Z,100381.91
2018-12-01T12:54:14.939Z,100369.67
2018-12-01T12:59:17.481Z,100366.98
2018-12-01T13:04:20.067Z,100352.84
2018-12-01T13:09:22.544Z,100359.73
2018-12-01T13:14:25.126Z,100346.47
2018-12-01T13:19:27.697Z,100355.59
2018-12-01T13:24:30.283Z,100348.44
2018-12-01T13:29:32.852Z,100344.37
2018-12-01T13:34:35.413Z,100330.89
2018-12-01T13:39:37.905Z,100329.77
2018-12-01T13:44:47.126Z,100326.64
2018-12-01T13:49:50.314Z,100336.06
2018-12-01T13:54:52.722Z,100331.53
2018-12-01T13:59:55.182Z,100330.80
2018-12-01T14:04:57.664Z,100317.19
2018-12-01T14:10:00.198Z,100319.28
2018-12-01T14:15:02.790Z,100320.02
2018-12-01T14:20:05.811Z,100318.50
2018-12-01T14:25:09.256Z,100323.14
2018-12-01T14:30:13.850Z,100323.22
2018-12-01T14:35:22.291Z,100323.01
2018-12-01T14:40:25.424Z,100322.63
2018-12-01T14:45:31.881Z,100309.25
2018-12-01T14:50:35.242Z,100310.09
2018-12-01T14:55:37.883Z,100304.78
2018-12-01T15:00:48.816Z,100307.25
2018-12-01T15:05:51.591Z,100298.56
2018-12-01T15:10:54.315Z,100297.81
2018-12-01T15:15:57.090Z,100297.81
2018-12-01T15:21:02.101Z,100291.36
2018-12-01T15:26:06.320Z,100286.92
2018-12-01T15:31:09.835Z,100293.36
2018-12-01T15:36:12.442Z,100300.00
2018-12-01T15:41:15.184Z,100298.26
2018-12-01T15:46:18.255Z,100301.84
2018-12-01T15:51:21.046Z,100297.39
2018-12-01T15:56:23.779Z,100300.23
2018-12-01T16:01:26.787Z,100290.05
2018-12-01T16:06:29.903Z,100289.46
2018-12-01T16:11:33.317Z,100281.12
2018-12-01T16:16:37.167Z,100284.81
2018-12-01T16:21:39.808Z,100275.68
2018-12-01T16:26:43.134Z,100275.69
2018-12-01T16:31:47.849Z,100275.02
2018-12-01T16:36:51.256Z,100264.17
2018-12-01T16:41:53.739Z,100264.08
2018-12-01T16:46:56.306Z,100254.09
2018-12-01T16:51:58.833Z,100240.37
2018-12-01T16:57:01.326Z,100237.53
2018-12-01T17:02:04.003Z,100228.45
2018-12-01T17:07:06.466Z,100219.02
2018-12-01T17:12:08.873Z,100204.17
2018-12-01T17:17:11.605Z,100198.69
2018-12-01T17:22:14.070Z,100207.66
2018-12-01T17:27:16.779Z,100197.45
2018-12-01T17:32:19.233Z,100199.03
2018-12-01T17:37:21.766Z,100194.22
2018-12-01T17:42:24.438Z,100194.17
2018-12-01T17:47:26.773Z,100181.91
2018-12-01T17:52:29.565Z,100183.36
2018-12-01T17:57:31.994Z,100185.90
2018-12-01T18:02:34.493Z,100191.72
2018-12-01T18:07:37.461Z,100186.80
2018-12-01T18:12:40.354Z,100191.52
2018-12-01T18:17:42.734Z,100198.95
2018-12-01T18:22:56.194Z,100198.70
2018-12-01T18:27:59.408Z,100201.64
2018-12-01T18:33:18.637Z,100191.03
2018-12-01T18:38:21.156Z,100187.58
2018-12-01T18:43:23.799Z,100170.97
2018-12-01T18:48:26.446Z,100164.78
2018-12-01T18:53:29.032Z,100163.23
2018-12-01T18:58:31.489Z,100162.42
2018-12-01T19:03:35.414Z,100148.23
2018-12-01T19:08:37.929Z,100141.94
2018-12-01T19:13:40.471Z,100149.25
2018-12-01T19:18:43.734Z,100140.36
2018-12-01T19:23:46.225Z,100135.48
2018-12-01T19:28:48.705Z,100115.98
2018-12-01T19:33:51.182Z,100108.59
2018-12-01T19:38:53.802Z,100109.36
2018-12-01T19:43:56.207Z,100084.34
2018-12-01T19:48:58.618Z,100075.09
2018-12-01T19:54:01.400Z,100064.63
2018-12-01T19:59:03.894Z,100062.06
2018-12-01T20:04:06.914Z,100057.86
2018-12-01T20:09:09.370Z,100058.72
2018-12-01T20:14:14.673Z,100060.09
2018-12-01T20:19:17.096Z,100040.05
2018-12-01T20:24:19.781Z,100038.89
2018-12-01T20:29:22.140Z,100021.83
2018-12-01T20:34:24.907Z,100027.88
2018-12-01T20:39:33.668Z,100022.36
2018-12-01T20:44:36.685Z,100013.37
2018-12-01T20:49:39.584Z,100003.94
2018-12-01T20:54:45.006Z,99998.88
2018-12-01T20:59:47.592Z,99990.47
2018-12-01T21:04:50.075Z,99991.34
2018-12-01T21:09:52.743Z,99992.28
2018-12-01T21:14:55.158Z,99984.95
2018-12-01T21:19:57.600Z,99978.40
2018-12-01T21:25:00.450Z,99966.30
2018-12-01T21:30:03.271Z,99961.42
2018-12-01T21:35:07.924Z,99968.41
2018-12-01T21:40:13.314Z,99964.90
2018-12-01T21:45:17.007Z,99962.10
2018-12-01T21:50:20.766Z,99944.91
2018-12-01T21:55:23.902Z,99935.77
2018-12-01T22:00:30.966Z,99919.56
2018-12-01T22:05:43.027Z,99916.52
2018-12-01T22:10:49.342Z,99905.50
2018-12-01T22:15:51.817Z,99909.42
2018-12-01T22:20:54.317Z,99903.70
2018-12-01T22:25:56.780Z,99889.33
2018-12-01T22:30:59.521Z,99895.97
2018-12-01T22:36:01.970Z,99894.64
2018-12-01T22:41:04.773Z,99899.90
2018-12-01T22:46:07.674Z,99880.30
2018-12-01T22:51:10.111Z,99873.66
2018-12-01T22:56:12.716Z,99866.89
2018-12-01T23:01:15.349Z,99867.10
2018-12-01T23:06:17.914Z,99864.37
2018-12-01T23:11:20.327Z,99863.84
2018-12-01T23:16:23.052Z,99855.09
2018-12-01T23:21:25.988Z,99852.38
2018-12-01T23:26:28.507Z,99854.96
2018-12-01T23:31:31.273Z,99850.56
2018-12-01T23:36:34.200Z,99850.19
2018-12-01T23:41:36.672Z,99836.92
2018-12-01T23:46:39.142Z,99819.45
2018-12-01T23:51:41.701Z,99815.95
2018-12-01T23:56:44.205Z,99800.27
